sensor_id;sensor_type;location;lat;lon;timestamp;temperature;humidity
5868;DHT22;2960;49.142;7.768;2023-02-28T00:01:11;3.60;40.60
5868;DHT22;2960;49.142;7.768;2023-02-28T00:03:39;3.60;40.50
5868;DHT22;2960;49.142;7.768;2023-02-28T00:06:07;3.60;39.90
5868;DHT22;2960;49.142;7.768;2023-02-28T00:08:35;3.60;39.90
5868;DHT22;2960;49.142;7.768;2023-02-28T00:11:02;3.60;40.00
5868;DHT22;2960;49.142;7.768;2023-02-28T00:13:34;3.60;39.90
5868;DHT22;2960;49.142;7.768;2023-02-28T00:16:06;3.60;39.90
5868;DHT22;2960;49.142;7.768;2023-02-28T00:18:35;3.60;39.90
5868;DHT22;2960;49.142;7.768;2023-02-28T00:21:02;3.60;39.90
5868;DHT22;2960;49.142;7.768;2023-02-28T00:23:29;3.60;39.80
5868;DHT22;2960;49.142;7.768;2023-02-28T00:25:57;3.50;39.80
5868;DHT22;2960;49.142;7.768;2023-02-28T00:28:24;3.50;39.80
5868;DHT22;2960;49.142;7.768;2023-02-28T00:30:51;3.50;39.80
5868;DHT22;2960;49.142;7.768;2023-02-28T00:33:20;3.50;39.80
5868;DHT22;2960;49.142;7.768;2023-02-28T00:35:47;3.50;39.80
5868;DHT22;2960;49.142;7.768;2023-02-28T00:38:15;3.50;39.80
5868;DHT22;2960;49.142;7.768;2023-02-28T00:40:43;3.50;39.80
5868;DHT22;2960;49.142;7.768;2023-02-28T00:43:10;3.40;39.80
5868;DHT22;2960;49.142;7.768;2023-02-28T00:45:39;3.40;39.80
5868;DHT22;2960;49.142;7.768;2023-02-28T00:48:06;3.40;39.70
5868;DHT22;2960;49.142;7.768;2023-02-28T00:50:34;3.40;39.70
5868;DHT22;2960;49.142;7.768;2023-02-28T00:53:01;3.40;39.70
5868;DHT22;2960;49.142;7.768;2023-02-28T00:55:29;3.40;39.60
5868;DHT22;2960;49.142;7.768;2023-02-28T00:57:58;3.40;39.60
5868;DHT22;2960;49.142;7.768;2023-02-28T01:00:27;3.40;39.60
5868;DHT22;2960;49.142;7.768;2023-02-28T01:02:54;3.40;39.60
5868;DHT22;2960;49.142;7.768;2023-02-28T01:05:21;3.40;39.60
5868;DHT22;2960;49.142;7.768;2023-02-28T01:07:50;3.40;39.70
5868;DHT22;2960;49.142;7.768;2023-02-28T01:10:18;3.40;39.70
5868;DHT22;2960;49.142;7.768;2023-02-28T01:12:46;3.40;40.30
5868;DHT22;2960;49.142;7.768;2023-02-28T01:15:13;3.40;39.70
5868;DHT22;2960;49.142;7.768;2023-02-28T01:17:41;3.30;39.60
5868;DHT22;2960;49.142;7.768;2023-02-28T01:20:10;3.30;39.60
5868;DHT22;2960;49.142;7.768;2023-02-28T01:22:37;3.30;39.60
5868;DHT22;2960;49.142;7.768;2023-02-28T01:25:06;3.30;39.60
5868;DHT22;2960;49.142;7.768;2023-02-28T01:27:34;3.30;39.60
5868;DHT22;2960;49.142;7.768;2023-02-28T01:30:02;3.30;39.60
5868;DHT22;2960;49.142;7.768;2023-02-28T01:32:30;3.30;39.60
5868;DHT22;2960;49.142;7.768;2023-02-28T01:34:57;3.30;39.50
5868;DHT22;2960;49.142;7.768;2023-02-28T01:37:24;3.30;39.50
5868;DHT22;2960;49.142;7.768;2023-02-28T01:39:51;3.30;39.60
5868;DHT22;2960;49.142;7.768;2023-02-28T01:42:19;3.30;39.60
5868;DHT22;2960;49.142;7.768;2023-02-28T01:45:21;3.30;39.60
5868;DHT22;2960;49.142;7.768;2023-02-28T01:47:52;3.30;39.70
5868;DHT22;2960;49.142;7.768;2023-02-28T01:50:23;3.30;39.70
5868;DHT22;2960;49.142;7.768;2023-02-28T01:52:57;3.30;39.70
5868;DHT22;2960;49.142;7.768;2023-02-28T01:55:29;3.30;39.70
5868;DHT22;2960;49.142;7.768;2023-02-28T01:58:00;3.30;39.80
5868;DHT22;2960;49.142;7.768;2023-02-28T02:00:30;3.30;40.00
5868;DHT22;2960;49.142;7.768;2023-02-28T02:02:59;3.30;39.90
5868;DHT22;2960;49.142;7.768;2023-02-28T02:05:30;3.30;40.00
5868;DHT22;2960;49.142;7.768;2023-02-28T02:08:01;3.30;40.00
5868;DHT22;2960;49.142;7.768;2023-02-28T02:10:33;3.30;40.00
5868;DHT22;2960;49.142;7.768;2023-02-28T02:13:29;3.30;40.10
5868;DHT22;2960;49.142;7.768;2023-02-28T02:16:13;3.30;40.10
5868;DHT22;2960;49.142;7.768;2023-02-28T02:18:49;3.30;40.10
5868;DHT22;2960;49.142;7.768;2023-02-28T02:21:51;3.30;40.10
5868;DHT22;2960;49.142;7.768;2023-02-28T02:24:53;3.30;40.10
5868;DHT22;2960;49.142;7.768;2023-02-28T02:31:01;3.30;40.20
5868;DHT22;2960;49.142;7.768;2023-02-28T02:37:16;3.30;40.20
5868;DHT22;2960;49.142;7.768;2023-02-28T02:40:00;3.30;40.40
5868;DHT22;2960;49.142;7.768;2023-02-28T02:42:36;3.30;40.40
5868;DHT22;2960;49.142;7.768;2023-02-28T02:45:11;3.30;40.50
5868;DHT22;2960;49.142;7.768;2023-02-28T02:47:41;3.30;40.60
5868;DHT22;2960;49.142;7.768;2023-02-28T02:50:15;3.20;40.50
5868;DHT22;2960;49.142;7.768;2023-02-28T02:52:50;3.20;41.10
5868;DHT22;2960;49.142;7.768;2023-02-28T02:55:20;3.20;40.60
5868;DHT22;2960;49.142;7.768;2023-02-28T02:57:51;3.20;40.70
5868;DHT22;2960;49.142;7.768;2023-02-28T03:00:23;3.20;40.80
5868;DHT22;2960;49.142;7.768;2023-02-28T03:02:54;3.20;40.90
5868;DHT22;2960;49.142;7.768;2023-02-28T03:05:26;3.20;41.00
5868;DHT22;2960;49.142;7.768;2023-02-28T03:07:56;3.10;41.20
5868;DHT22;2960;49.142;7.768;2023-02-28T03:10:35;3.10;41.50
5868;DHT22;2960;49.142;7.768;2023-02-28T03:13:21;3.10;41.70
5868;DHT22;2960;49.142;7.768;2023-02-28T03:19:08;2.90;41.70
5868;DHT22;2960;49.142;7.768;2023-02-28T03:21:52;2.90;41.80
5868;DHT22;2960;49.142;7.768;2023-02-28T03:24:31;2.90;41.90
5868;DHT22;2960;49.142;7.768;2023-02-28T03:27:07;2.80;42.00
5868;DHT22;2960;49.142;7.768;2023-02-28T03:29:40;2.80;42.20
5868;DHT22;2960;49.142;7.768;2023-02-28T03:32:14;2.80;42.10
5868;DHT22;2960;49.142;7.768;2023-02-28T03:34:50;2.80;42.30
5868;DHT22;2960;49.142;7.768;2023-02-28T03:37:23;2.80;42.30
5868;DHT22;2960;49.142;7.768;2023-02-28T03:39:56;2.80;42.30
5868;DHT22;2960;49.142;7.768;2023-02-28T03:42:28;2.80;42.30
5868;DHT22;2960;49.142;7.768;2023-02-28T03:44:58;2.80;42.30
5868;DHT22;2960;49.142;7.768;2023-02-28T03:47:30;2.80;42.30
5868;DHT22;2960;49.142;7.768;2023-02-28T03:50:03;2.80;42.30
5868;DHT22;2960;49.142;7.768;2023-02-28T03:52:35;2.80;42.30
5868;DHT22;2960;49.142;7.768;2023-02-28T03:55:10;2.70;42.30
5868;DHT22;2960;49.142;7.768;2023-02-28T03:57:43;2.70;42.30
5868;DHT22;2960;49.142;7.768;2023-02-28T04:00:19;2.80;42.40
5868;DHT22;2960;49.142;7.768;2023-02-28T04:02:48;2.70;42.40
5868;DHT22;2960;49.142;7.768;2023-02-28T04:05:18;2.70;43.00
5868;DHT22;2960;49.142;7.768;2023-02-28T04:07:45;2.70;42.50
5868;DHT22;2960;49.142;7.768;2023-02-28T04:10:15;2.70;42.60
5868;DHT22;2960;49.142;7.768;2023-02-28T04:12:43;2.70;42.60
5868;DHT22;2960;49.142;7.768;2023-02-28T04:15:10;2.70;42.60
5868;DHT22;2960;49.142;7.768;2023-02-28T04:17:37;2.60;42.60
5868;DHT22;2960;49.142;7.768;2023-02-28T04:20:05;2.70;42.80
5868;DHT22;2960;49.142;7.768;2023-02-28T04:22:35;2.60;42.70
5868;DHT22;2960;49.142;7.768;2023-02-28T04:25:03;2.60;42.70
5868;DHT22;2960;49.142;7.768;2023-02-28T04:27:33;2.60;42.90
5868;DHT22;2960;49.142;7.768;2023-02-28T04:30:00;2.60;42.90
5868;DHT22;2960;49.142;7.768;2023-02-28T04:32:27;2.60;42.90
5868;DHT22;2960;49.142;7.768;2023-02-28T04:34:55;2.50;42.90
5868;DHT22;2960;49.142;7.768;2023-02-28T04:37:22;2.50;43.00
5868;DHT22;2960;49.142;7.768;2023-02-28T04:39:53;2.50;43.10
5868;DHT22;2960;49.142;7.768;2023-02-28T04:42:23;2.50;43.10
5868;DHT22;2960;49.142;7.768;2023-02-28T04:44:51;2.50;43.20
5868;DHT22;2960;49.142;7.768;2023-02-28T04:47:18;2.50;43.40
5868;DHT22;2960;49.142;7.768;2023-02-28T04:49:47;2.40;43.40
5868;DHT22;2960;49.142;7.768;2023-02-28T04:52:14;2.40;43.40
5868;DHT22;2960;49.142;7.768;2023-02-28T04:54:41;2.40;43.50
5868;DHT22;2960;49.142;7.768;2023-02-28T04:57:08;2.40;43.50
5868;DHT22;2960;49.142;7.768;2023-02-28T04:59:35;2.40;43.50
5868;DHT22;2960;49.142;7.768;2023-02-28T05:02:04;2.40;43.60
5868;DHT22;2960;49.142;7.768;2023-02-28T05:04:32;2.40;43.60
5868;DHT22;2960;49.142;7.768;2023-02-28T05:07:00;2.40;43.80
5868;DHT22;2960;49.142;7.768;2023-02-28T05:09:27;2.40;43.80
5868;DHT22;2960;49.142;7.768;2023-02-28T05:11:54;2.40;43.80
5868;DHT22;2960;49.142;7.768;2023-02-28T05:14:22;2.40;43.80
5868;DHT22;2960;49.142;7.768;2023-02-28T05:16:49;2.30;43.80
5868;DHT22;2960;49.142;7.768;2023-02-28T05:19:17;2.30;43.90
5868;DHT22;2960;49.142;7.768;2023-02-28T05:21:53;2.30;43.90
5868;DHT22;2960;49.142;7.768;2023-02-28T05:24:21;2.30;43.90
5868;DHT22;2960;49.142;7.768;2023-02-28T05:26:50;2.30;43.90
5868;DHT22;2960;49.142;7.768;2023-02-28T05:29:18;2.30;44.00
5868;DHT22;2960;49.142;7.768;2023-02-28T05:31:45;2.30;44.10
5868;DHT22;2960;49.142;7.768;2023-02-28T05:34:17;2.30;44.10
5868;DHT22;2960;49.142;7.768;2023-02-28T05:36:44;2.30;44.20
5868;DHT22;2960;49.142;7.768;2023-02-28T05:39:12;2.30;44.30
5868;DHT22;2960;49.142;7.768;2023-02-28T05:41:40;2.30;44.30
5868;DHT22;2960;49.142;7.768;2023-02-28T05:44:08;2.30;44.30
5868;DHT22;2960;49.142;7.768;2023-02-28T05:46:35;2.30;44.30
5868;DHT22;2960;49.142;7.768;2023-02-28T05:49:03;2.30;44.30
5868;DHT22;2960;49.142;7.768;2023-02-28T05:51:32;2.30;44.40
5868;DHT22;2960;49.142;7.768;2023-02-28T05:54:00;2.30;44.40
5868;DHT22;2960;49.142;7.768;2023-02-28T05:56:28;2.30;44.40
5868;DHT22;2960;49.142;7.768;2023-02-28T05:58:57;2.30;44.50
5868;DHT22;2960;49.142;7.768;2023-02-28T06:01:32;2.30;44.50
5868;DHT22;2960;49.142;7.768;2023-02-28T06:04:02;2.30;44.50
5868;DHT22;2960;49.142;7.768;2023-02-28T06:06:32;2.30;44.50
5868;DHT22;2960;49.142;7.768;2023-02-28T06:09:00;2.40;44.60
5868;DHT22;2960;49.142;7.768;2023-02-28T06:11:30;2.40;44.60
5868;DHT22;2960;49.142;7.768;2023-02-28T06:13:59;2.40;44.60
5868;DHT22;2960;49.142;7.768;2023-02-28T06:16:27;2.40;44.60
5868;DHT22;2960;49.142;7.768;2023-02-28T06:18:57;2.40;44.70
5868;DHT22;2960;49.142;7.768;2023-02-28T06:21:25;2.40;44.60
5868;DHT22;2960;49.142;7.768;2023-02-28T06:23:55;2.40;44.70
5868;DHT22;2960;49.142;7.768;2023-02-28T06:26:23;2.40;44.70
5868;DHT22;2960;49.142;7.768;2023-02-28T06:28:50;2.40;44.70
5868;DHT22;2960;49.142;7.768;2023-02-28T06:31:18;2.40;44.70
5868;DHT22;2960;49.142;7.768;2023-02-28T06:33:46;2.40;44.70
5868;DHT22;2960;49.142;7.768;2023-02-28T06:36:15;2.50;44.80
5868;DHT22;2960;49.142;7.768;2023-02-28T06:38:43;2.50;44.80
5868;DHT22;2960;49.142;7.768;2023-02-28T06:41:12;2.50;44.90
5868;DHT22;2960;49.142;7.768;2023-02-28T06:43:41;2.50;44.80
5868;DHT22;2960;49.142;7.768;2023-02-28T06:46:12;2.50;44.90
5868;DHT22;2960;49.142;7.768;2023-02-28T06:48:40;2.50;45.00
5868;DHT22;2960;49.142;7.768;2023-02-28T06:51:09;2.50;45.00
5868;DHT22;2960;49.142;7.768;2023-02-28T06:53:38;2.50;45.00
5868;DHT22;2960;49.142;7.768;2023-02-28T06:56:07;2.60;45.30
5868;DHT22;2960;49.142;7.768;2023-02-28T06:58:37;2.50;45.20
5868;DHT22;2960;49.142;7.768;2023-02-28T07:01:05;2.60;45.20
5868;DHT22;2960;49.142;7.768;2023-02-28T07:03:35;2.60;45.30
5868;DHT22;2960;49.142;7.768;2023-02-28T07:06:04;2.60;45.40
5868;DHT22;2960;49.142;7.768;2023-02-28T07:08:33;2.60;45.40
5868;DHT22;2960;49.142;7.768;2023-02-28T07:11:02;2.60;45.40
5868;DHT22;2960;49.142;7.768;2023-02-28T07:13:29;2.60;45.40
5868;DHT22;2960;49.142;7.768;2023-02-28T07:16:01;2.60;45.50
5868;DHT22;2960;49.142;7.768;2023-02-28T07:18:35;2.60;45.60
5868;DHT22;2960;49.142;7.768;2023-02-28T07:21:04;2.60;45.50
5868;DHT22;2960;49.142;7.768;2023-02-28T07:23:32;2.70;45.60
5868;DHT22;2960;49.142;7.768;2023-02-28T07:26:04;2.60;45.60
5868;DHT22;2960;49.142;7.768;2023-02-28T07:28:31;2.60;45.60
5868;DHT22;2960;49.142;7.768;2023-02-28T07:31:04;2.60;45.70
5868;DHT22;2960;49.142;7.768;2023-02-28T07:33:33;2.60;45.80
5868;DHT22;2960;49.142;7.768;2023-02-28T07:36:02;2.60;45.90
5868;DHT22;2960;49.142;7.768;2023-02-28T07:38:30;2.60;46.10
5868;DHT22;2960;49.142;7.768;2023-02-28T07:40:57;2.60;46.10
5868;DHT22;2960;49.142;7.768;2023-02-28T07:43:24;2.50;46.30
5868;DHT22;2960;49.142;7.768;2023-02-28T07:45:51;2.50;46.30
5868;DHT22;2960;49.142;7.768;2023-02-28T07:48:20;2.50;46.30
5868;DHT22;2960;49.142;7.768;2023-02-28T07:50:54;2.60;46.30
5868;DHT22;2960;49.142;7.768;2023-02-28T07:53:22;2.60;46.30
5868;DHT22;2960;49.142;7.768;2023-02-28T07:55:49;2.60;46.20
5868;DHT22;2960;49.142;7.768;2023-02-28T07:58:16;2.70;46.90
5868;DHT22;2960;49.142;7.768;2023-02-28T08:00:43;2.70;46.30
5868;DHT22;2960;49.142;7.768;2023-02-28T08:03:12;2.80;46.30
5868;DHT22;2960;49.142;7.768;2023-02-28T08:05:41;2.80;46.30
5868;DHT22;2960;49.142;7.768;2023-02-28T08:08:08;2.80;46.50
5868;DHT22;2960;49.142;7.768;2023-02-28T08:10:36;2.80;46.40
5868;DHT22;2960;49.142;7.768;2023-02-28T08:13:03;2.80;46.50
5868;DHT22;2960;49.142;7.768;2023-02-28T08:15:31;2.80;46.50
5868;DHT22;2960;49.142;7.768;2023-02-28T08:17:58;2.80;46.40
5868;DHT22;2960;49.142;7.768;2023-02-28T08:20:25;2.80;46.40
5868;DHT22;2960;49.142;7.768;2023-02-28T08:22:57;2.80;47.00
5868;DHT22;2960;49.142;7.768;2023-02-28T08:25:24;2.90;46.40
5868;DHT22;2960;49.142;7.768;2023-02-28T08:27:52;2.90;46.40
5868;DHT22;2960;49.142;7.768;2023-02-28T08:30:19;2.90;46.40
5868;DHT22;2960;49.142;7.768;2023-02-28T08:32:46;2.90;46.40
5868;DHT22;2960;49.142;7.768;2023-02-28T08:35:13;2.90;46.30
5868;DHT22;2960;49.142;7.768;2023-02-28T08:37:40;3.00;46.40
5868;DHT22;2960;49.142;7.768;2023-02-28T08:40:10;3.00;46.40
5868;DHT22;2960;49.142;7.768;2023-02-28T08:42:39;3.10;46.50
5868;DHT22;2960;49.142;7.768;2023-02-28T08:45:07;3.20;46.40
5868;DHT22;2960;49.142;7.768;2023-02-28T08:47:34;3.30;46.40
5868;DHT22;2960;49.142;7.768;2023-02-28T08:50:01;3.40;46.40
5868;DHT22;2960;49.142;7.768;2023-02-28T08:52:28;3.50;46.30
5868;DHT22;2960;49.142;7.768;2023-02-28T08:54:55;3.50;46.80
5868;DHT22;2960;49.142;7.768;2023-02-28T08:57:26;3.60;46.20
5868;DHT22;2960;49.142;7.768;2023-02-28T08:59:53;3.70;46.20
5868;DHT22;2960;49.142;7.768;2023-02-28T09:02:21;3.80;46.20
5868;DHT22;2960;49.142;7.768;2023-02-28T09:04:48;3.80;46.10
5868;DHT22;2960;49.142;7.768;2023-02-28T09:07:15;3.80;46.10
5868;DHT22;2960;49.142;7.768;2023-02-28T09:09:42;3.80;46.10
5868;DHT22;2960;49.142;7.768;2023-02-28T09:12:19;3.80;46.10
5868;DHT22;2960;49.142;7.768;2023-02-28T09:14:47;3.80;46.00
5868;DHT22;2960;49.142;7.768;2023-02-28T09:17:15;3.90;46.00
5868;DHT22;2960;49.142;7.768;2023-02-28T09:19:42;3.90;46.00
5868;DHT22;2960;49.142;7.768;2023-02-28T09:22:10;3.90;45.90
5868;DHT22;2960;49.142;7.768;2023-02-28T09:24:37;3.90;45.90
5868;DHT22;2960;49.142;7.768;2023-02-28T09:27:05;3.90;45.80
5868;DHT22;2960;49.142;7.768;2023-02-28T09:29:33;3.90;45.90
5868;DHT22;2960;49.142;7.768;2023-02-28T09:32:03;3.90;45.80
5868;DHT22;2960;49.142;7.768;2023-02-28T09:34:31;3.90;45.80
5868;DHT22;2960;49.142;7.768;2023-02-28T09:36:58;3.90;45.80
5868;DHT22;2960;49.142;7.768;2023-02-28T09:39:25;3.90;45.80
5868;DHT22;2960;49.142;7.768;2023-02-28T09:41:54;4.00;45.90
5868;DHT22;2960;49.142;7.768;2023-02-28T09:44:27;4.00;46.00
5868;DHT22;2960;49.142;7.768;2023-02-28T09:46:59;4.10;46.10
5868;DHT22;2960;49.142;7.768;2023-02-28T09:49:40;4.30;46.30
5868;DHT22;2960;49.142;7.768;2023-02-28T09:52:15;4.60;46.40
5868;DHT22;2960;49.142;7.768;2023-02-28T09:54:45;4.90;46.50
5868;DHT22;2960;49.142;7.768;2023-02-28T09:57:19;5.20;46.40
5868;DHT22;2960;49.142;7.768;2023-02-28T10:00:02;5.60;46.20
5868;DHT22;2960;49.142;7.768;2023-02-28T10:02:58;5.80;45.70
5868;DHT22;2960;49.142;7.768;2023-02-28T10:05:36;6.00;45.30
5868;DHT22;2960;49.142;7.768;2023-02-28T10:08:13;6.10;45.00
5868;DHT22;2960;49.142;7.768;2023-02-28T10:10:44;6.10;44.60
5868;DHT22;2960;49.142;7.768;2023-02-28T10:13:23;6.10;44.50
5868;DHT22;2960;49.142;7.768;2023-02-28T10:15:55;6.00;44.50
5868;DHT22;2960;49.142;7.768;2023-02-28T10:18:30;5.90;44.40
5868;DHT22;2960;49.142;7.768;2023-02-28T10:21:00;5.80;44.40
5868;DHT22;2960;49.142;7.768;2023-02-28T10:23:31;5.80;45.10
5868;DHT22;2960;49.142;7.768;2023-02-28T10:26:00;5.80;44.60
5868;DHT22;2960;49.142;7.768;2023-02-28T10:28:34;5.80;44.60
5868;DHT22;2960;49.142;7.768;2023-02-28T10:31:03;5.80;44.50
5868;DHT22;2960;49.142;7.768;2023-02-28T10:33:34;5.90;45.00
5868;DHT22;2960;49.142;7.768;2023-02-28T10:36:03;5.80;44.40
5868;DHT22;2960;49.142;7.768;2023-02-28T10:38:34;5.80;44.20
5868;DHT22;2960;49.142;7.768;2023-02-28T10:41:06;5.70;44.10
5868;DHT22;2960;49.142;7.768;2023-02-28T10:43:35;5.60;44.10
5868;DHT22;2960;49.142;7.768;2023-02-28T10:46:09;5.50;44.00
5868;DHT22;2960;49.142;7.768;2023-02-28T10:48:44;5.50;44.20
5868;DHT22;2960;49.142;7.768;2023-02-28T10:51:15;5.30;44.20
5868;DHT22;2960;49.142;7.768;2023-02-28T10:53:48;5.20;44.20
5868;DHT22;2960;49.142;7.768;2023-02-28T10:56:18;5.20;44.30
5868;DHT22;2960;49.142;7.768;2023-02-28T10:58:55;5.10;44.30
5868;DHT22;2960;49.142;7.768;2023-02-28T11:01:26;5.10;44.30
5868;DHT22;2960;49.142;7.768;2023-02-28T11:04:17;5.10;44.30
5868;DHT22;2960;49.142;7.768;2023-02-28T11:06:45;5.10;44.30
5868;DHT22;2960;49.142;7.768;2023-02-28T11:09:23;5.10;44.30
5868;DHT22;2960;49.142;7.768;2023-02-28T11:11:52;5.10;44.10
5868;DHT22;2960;49.142;7.768;2023-02-28T11:14:22;5.20;44.20
5868;DHT22;2960;49.142;7.768;2023-02-28T11:16:51;5.30;44.30
5868;DHT22;2960;49.142;7.768;2023-02-28T11:19:23;5.40;44.20
5868;DHT22;2960;49.142;7.768;2023-02-28T11:21:55;5.50;43.90
5868;DHT22;2960;49.142;7.768;2023-02-28T11:24:25;5.60;43.70
5868;DHT22;2960;49.142;7.768;2023-02-28T11:26:55;5.60;43.50
5868;DHT22;2960;49.142;7.768;2023-02-28T11:29:25;5.60;43.50
5868;DHT22;2960;49.142;7.768;2023-02-28T11:32:07;5.70;43.80
5868;DHT22;2960;49.142;7.768;2023-02-28T11:34:41;6.00;44.10
5868;DHT22;2960;49.142;7.768;2023-02-28T11:37:16;6.40;43.60
5868;DHT22;2960;49.142;7.768;2023-02-28T11:39:45;6.60;42.90
5868;DHT22;2960;49.142;7.768;2023-02-28T11:42:35;6.80;43.20
5868;DHT22;2960;49.142;7.768;2023-02-28T11:45:24;7.00;42.40
5868;DHT22;2960;49.142;7.768;2023-02-28T11:48:04;7.10;42.50
5868;DHT22;2960;49.142;7.768;2023-02-28T11:50:45;7.30;42.50
5868;DHT22;2960;49.142;7.768;2023-02-28T11:53:23;7.40;42.50
5868;DHT22;2960;49.142;7.768;2023-02-28T11:56:06;7.60;42.50
5868;DHT22;2960;49.142;7.768;2023-02-28T11:58:47;7.90;42.70
5868;DHT22;2960;49.142;7.768;2023-02-28T12:01:28;8.20;42.50
5868;DHT22;2960;49.142;7.768;2023-02-28T12:04:22;8.70;43.20
5868;DHT22;2960;49.142;7.768;2023-02-28T12:06:57;9.20;42.30
5868;DHT22;2960;49.142;7.768;2023-02-28T12:09:45;9.60;42.00
5868;DHT22;2960;49.142;7.768;2023-02-28T12:12:27;10.10;40.60
5868;DHT22;2960;49.142;7.768;2023-02-28T12:15:25;10.50;40.50
5868;DHT22;2960;49.142;7.768;2023-02-28T12:18:21;11.00;40.30
5868;DHT22;2960;49.142;7.768;2023-02-28T12:21:02;11.30;39.80
5868;DHT22;2960;49.142;7.768;2023-02-28T12:23:58;11.60;39.50
5868;DHT22;2960;49.142;7.768;2023-02-28T12:26:36;11.90;39.00
5868;DHT22;2960;49.142;7.768;2023-02-28T12:29:13;12.00;38.70
5868;DHT22;2960;49.142;7.768;2023-02-28T12:31:49;12.10;38.60
5868;DHT22;2960;49.142;7.768;2023-02-28T12:34:20;12.10;38.50
5868;DHT22;2960;49.142;7.768;2023-02-28T12:36:51;12.10;37.80
5868;DHT22;2960;49.142;7.768;2023-02-28T12:39:26;12.00;36.70
5868;DHT22;2960;49.142;7.768;2023-02-28T12:42:00;11.90;37.60
5868;DHT22;2960;49.142;7.768;2023-02-28T12:44:34;11.90;36.80
5868;DHT22;2960;49.142;7.768;2023-02-28T12:47:08;11.90;36.80
5868;DHT22;2960;49.142;7.768;2023-02-28T12:49:45;11.80;36.00
5868;DHT22;2960;49.142;7.768;2023-02-28T12:52:17;11.70;36.20
5868;DHT22;2960;49.142;7.768;2023-02-28T12:54:52;11.70;36.30
5868;DHT22;2960;49.142;7.768;2023-02-28T12:57:29;11.60;36.30
5868;DHT22;2960;49.142;7.768;2023-02-28T13:00:04;11.60;36.20
5868;DHT22;2960;49.142;7.768;2023-02-28T13:02:56;11.50;36.20
5868;DHT22;2960;49.142;7.768;2023-02-28T13:09:01;11.40;36.00
5868;DHT22;2960;49.142;7.768;2023-02-28T13:11:38;11.40;36.00
5868;DHT22;2960;49.142;7.768;2023-02-28T13:14:19;11.50;36.10
5868;DHT22;2960;49.142;7.768;2023-02-28T13:16:57;11.60;36.60
5868;DHT22;2960;49.142;7.768;2023-02-28T13:19:28;11.70;35.50
5868;DHT22;2960;49.142;7.768;2023-02-28T13:21:57;11.70;35.30
5868;DHT22;2960;49.142;7.768;2023-02-28T13:24:39;11.70;35.70
5868;DHT22;2960;49.142;7.768;2023-02-28T13:27:24;11.70;35.20
5868;DHT22;2960;49.142;7.768;2023-02-28T13:33:31;11.80;35.10
5868;DHT22;2960;49.142;7.768;2023-02-28T13:36:10;11.70;34.90
5868;DHT22;2960;49.142;7.768;2023-02-28T13:38:50;11.70;34.90
5868;DHT22;2960;49.142;7.768;2023-02-28T13:41:46;11.60;34.80
5868;DHT22;2960;49.142;7.768;2023-02-28T13:44:18;11.50;34.80
5868;DHT22;2960;49.142;7.768;2023-02-28T13:47:20;11.40;34.40
5868;DHT22;2960;49.142;7.768;2023-02-28T13:49:51;11.30;34.30
5868;DHT22;2960;49.142;7.768;2023-02-28T13:52:23;11.30;34.50
5868;DHT22;2960;49.142;7.768;2023-02-28T13:55:21;11.30;34.00
5868;DHT22;2960;49.142;7.768;2023-02-28T13:58:10;11.30;34.00
5868;DHT22;2960;49.142;7.768;2023-02-28T14:01:00;11.10;34.00
5868;DHT22;2960;49.142;7.768;2023-02-28T14:03:48;11.10;34.10
5868;DHT22;2960;49.142;7.768;2023-02-28T14:06:26;11.00;34.20
5868;DHT22;2960;49.142;7.768;2023-02-28T14:08:59;11.10;33.90
5868;DHT22;2960;49.142;7.768;2023-02-28T14:11:31;11.00;33.60
5868;DHT22;2960;49.142;7.768;2023-02-28T14:14:01;10.90;33.50
5868;DHT22;2960;49.142;7.768;2023-02-28T14:16:39;10.90;33.80
5868;DHT22;2960;49.142;7.768;2023-02-28T14:19:12;10.90;33.80
5868;DHT22;2960;49.142;7.768;2023-02-28T14:21:52;10.80;33.70
5868;DHT22;2960;49.142;7.768;2023-02-28T14:24:46;10.80;33.70
5868;DHT22;2960;49.142;7.768;2023-02-28T14:27:32;10.80;33.70
5868;DHT22;2960;49.142;7.768;2023-02-28T14:33:19;10.90;33.90
5868;DHT22;2960;49.142;7.768;2023-02-28T14:36:06;11.00;34.00
5868;DHT22;2960;49.142;7.768;2023-02-28T14:38:40;11.10;34.00
5868;DHT22;2960;49.142;7.768;2023-02-28T14:41:17;11.10;33.80
5868;DHT22;2960;49.142;7.768;2023-02-28T14:43:52;11.20;33.70
5868;DHT22;2960;49.142;7.768;2023-02-28T14:46:23;11.20;33.70
5868;DHT22;2960;49.142;7.768;2023-02-28T14:48:54;11.10;33.70
5868;DHT22;2960;49.142;7.768;2023-02-28T14:51:23;11.10;33.60
5868;DHT22;2960;49.142;7.768;2023-02-28T14:53:56;11.00;33.50
5868;DHT22;2960;49.142;7.768;2023-02-28T14:56:27;10.90;33.50
5868;DHT22;2960;49.142;7.768;2023-02-28T14:58:58;10.90;33.70
5868;DHT22;2960;49.142;7.768;2023-02-28T15:01:25;10.80;33.70
5868;DHT22;2960;49.142;7.768;2023-02-28T15:04:00;10.80;33.70
5868;DHT22;2960;49.142;7.768;2023-02-28T15:06:29;10.70;33.70
5868;DHT22;2960;49.142;7.768;2023-02-28T15:09:08;10.70;33.70
5868;DHT22;2960;49.142;7.768;2023-02-28T15:11:38;10.50;33.70
5868;DHT22;2960;49.142;7.768;2023-02-28T15:14:05;10.50;34.00
5868;DHT22;2960;49.142;7.768;2023-02-28T15:16:36;10.40;34.00
5868;DHT22;2960;49.142;7.768;2023-02-28T15:19:07;10.40;34.10
5868;DHT22;2960;49.142;7.768;2023-02-28T15:21:43;10.20;34.00
5868;DHT22;2960;49.142;7.768;2023-02-28T15:24:17;10.10;34.10
5868;DHT22;2960;49.142;7.768;2023-02-28T15:26:54;10.00;34.10
5868;DHT22;2960;49.142;7.768;2023-02-28T15:29:25;9.90;35.00
5868;DHT22;2960;49.142;7.768;2023-02-28T15:31:57;9.80;35.20
5868;DHT22;2960;49.142;7.768;2023-02-28T15:34:34;9.70;35.20
5868;DHT22;2960;49.142;7.768;2023-02-28T15:37:23;9.70;35.40
5868;DHT22;2960;49.142;7.768;2023-02-28T15:39:55;9.70;35.40
5868;DHT22;2960;49.142;7.768;2023-02-28T15:42:27;9.70;36.00
5868;DHT22;2960;49.142;7.768;2023-02-28T15:44:57;9.70;35.40
5868;DHT22;2960;49.142;7.768;2023-02-28T15:47:26;9.70;35.40
5868;DHT22;2960;49.142;7.768;2023-02-28T15:49:59;9.60;35.30
5868;DHT22;2960;49.142;7.768;2023-02-28T15:52:29;9.50;35.30
5868;DHT22;2960;49.142;7.768;2023-02-28T15:55:08;9.40;35.30
5868;DHT22;2960;49.142;7.768;2023-02-28T15:57:39;9.30;35.30
5868;DHT22;2960;49.142;7.768;2023-02-28T16:00:11;9.30;35.50
5868;DHT22;2960;49.142;7.768;2023-02-28T16:02:41;9.20;35.60
5868;DHT22;2960;49.142;7.768;2023-02-28T16:05:30;9.20;35.60
5868;DHT22;2960;49.142;7.768;2023-02-28T16:08:01;9.20;35.70
5868;DHT22;2960;49.142;7.768;2023-02-28T16:10:35;9.10;36.20
5868;DHT22;2960;49.142;7.768;2023-02-28T16:13:03;9.10;35.70
5868;DHT22;2960;49.142;7.768;2023-02-28T16:15:37;9.00;35.70
5868;DHT22;2960;49.142;7.768;2023-02-28T16:18:07;8.90;35.80
5868;DHT22;2960;49.142;7.768;2023-02-28T16:20:37;8.80;35.80
5868;DHT22;2960;49.142;7.768;2023-02-28T16:23:04;8.70;35.90
5868;DHT22;2960;49.142;7.768;2023-02-28T16:25:35;8.70;36.00
5868;DHT22;2960;49.142;7.768;2023-02-28T16:28:04;8.60;36.00
5868;DHT22;2960;49.142;7.768;2023-02-28T16:30:35;8.60;36.10
5868;DHT22;2960;49.142;7.768;2023-02-28T16:33:02;8.50;36.10
5868;DHT22;2960;49.142;7.768;2023-02-28T16:35:29;8.50;36.20
5868;DHT22;2960;49.142;7.768;2023-02-28T16:37:57;8.40;36.20
5868;DHT22;2960;49.142;7.768;2023-02-28T16:40:25;8.40;36.30
5868;DHT22;2960;49.142;7.768;2023-02-28T16:42:57;8.40;36.40
5868;DHT22;2960;49.142;7.768;2023-02-28T16:45:26;8.30;36.40
5868;DHT22;2960;49.142;7.768;2023-02-28T16:47:55;8.30;36.50
5868;DHT22;2960;49.142;7.768;2023-02-28T16:50:24;8.20;36.40
5868;DHT22;2960;49.142;7.768;2023-02-28T16:52:52;8.20;36.50
5868;DHT22;2960;49.142;7.768;2023-02-28T16:55:24;8.10;36.60
5868;DHT22;2960;49.142;7.768;2023-02-28T16:57:53;8.00;36.60
5868;DHT22;2960;49.142;7.768;2023-02-28T17:00:22;7.90;36.70
5868;DHT22;2960;49.142;7.768;2023-02-28T17:02:51;7.80;36.70
5868;DHT22;2960;49.142;7.768;2023-02-28T17:05:18;7.70;36.80
5868;DHT22;2960;49.142;7.768;2023-02-28T17:07:46;7.60;36.90